createdAt,value
2022-12-26T00:01:07.199Z,9.34
2022-12-26T00:03:34.085Z,9.34
2022-12-26T00:06:00.829Z,9.41
2022-12-26T00:08:27.741Z,9.43
2022-12-26T00:10:54.480Z,9.45
2022-12-26T00:13:39.996Z,9.43
2022-12-26T00:16:14.054Z,9.35
2022-12-26T00:18:41.221Z,9.35
2022-12-26T00:21:10.443Z,9.37
2022-12-26T00:23:38.296Z,9.36
2022-12-26T00:26:11.217Z,9.34
2022-12-26T00:28:38.152Z,9.34
2022-12-26T00:31:11.743Z,9.33
2022-12-26T00:33:38.904Z,9.34
2022-12-26T00:36:22.561Z,9.36
2022-12-26T00:38:49.542Z,9.41
2022-12-26T00:41:21.160Z,9.40
2022-12-26T00:43:49.010Z,9.41
2022-12-26T00:46:17.451Z,9.46
2022-12-26T00:48:44.367Z,9.43
2022-12-26T00:51:12.102Z,9.45
2022-12-26T00:53:38.830Z,9.48
2022-12-26T00:56:06.425Z,9.53
2022-12-26T00:58:33.080Z,9.59
2022-12-26T01:01:25.888Z,9.62
2022-12-26T01:03:52.670Z,9.58
2022-12-26T01:06:30.348Z,9.71
2022-12-26T01:08:59.453Z,9.68
2022-12-26T01:11:45.529Z,9.65
2022-12-26T01:14:17.758Z,9.64
2022-12-26T01:16:46.495Z,9.66
2022-12-26T01:19:14.218Z,9.63
2022-12-26T01:21:42.963Z,9.60
2022-12-26T01:24:09.643Z,9.57
2022-12-26T01:26:38.894Z,9.51
2022-12-26T01:29:18.413Z,9.49
2022-12-26T01:31:45.124Z,9.48
2022-12-26T01:34:11.865Z,9.43
2022-12-26T01:36:38.514Z,9.41
2022-12-26T01:39:05.224Z,9.39
2022-12-26T01:41:33.146Z,9.40
2022-12-26T01:44:07.313Z,9.36
2022-12-26T01:46:44.765Z,9.37
2022-12-26T01:49:32.744Z,9.37
2022-12-26T01:52:08.093Z,9.37
2022-12-26T01:54:42.869Z,9.38
2022-12-26T01:57:40.463Z,9.38
2022-12-26T02:00:08.250Z,9.40
2022-12-26T02:03:01.458Z,9.39
2022-12-26T02:05:36.519Z,9.36
2022-12-26T02:08:13.181Z,9.36
2022-12-26T02:10:50.189Z,9.36
2022-12-26T02:13:18.573Z,9.38
2022-12-26T02:15:45.987Z,9.37
2022-12-26T02:18:12.647Z,9.37
2022-12-26T02:21:08.717Z,9.36
2022-12-26T02:24:10.656Z,9.35
2022-12-26T02:30:22.545Z,9.39
2022-12-26T02:33:17.840Z,9.40
2022-12-26T02:36:05.694Z,9.41
2022-12-26T02:39:02.159Z,9.39
2022-12-26T02:42:20.541Z,9.35
2022-12-26T02:45:57.167Z,9.34
2022-12-26T02:48:53.984Z,9.31
2022-12-26T02:52:07.163Z,9.27
2022-12-26T02:55:02.672Z,9.25
2022-12-26T02:58:32.567Z,9.31
2022-12-26T03:01:30.835Z,9.33
2022-12-26T03:04:22.749Z,9.32
2022-12-26T03:07:26.610Z,9.36
2022-12-26T03:10:12.376Z,9.41
2022-12-26T03:13:06.590Z,9.40
2022-12-26T03:16:17.193Z,9.43
2022-12-26T03:18:58.890Z,9.39
2022-12-26T03:21:34.284Z,9.40
2022-12-26T03:24:01.005Z,9.37
2022-12-26T03:26:47.425Z,9.37
2022-12-26T03:29:39.337Z,9.35
2022-12-26T03:32:55.516Z,9.31
2022-12-26T03:35:24.304Z,9.27
2022-12-26T03:38:11.057Z,9.31
2022-12-26T03:41:14.628Z,9.26
2022-12-26T03:44:35.322Z,9.24
2022-12-26T03:47:43.798Z,9.22
2022-12-26T03:50:51.416Z,9.18
2022-12-26T03:53:44.225Z,9.16
2022-12-26T03:56:54.340Z,9.17
2022-12-26T03:59:55.928Z,9.14
2022-12-26T04:02:51.936Z,9.13
2022-12-26T04:05:39.072Z,9.11
2022-12-26T04:08:35.850Z,9.10
2022-12-26T04:11:22.494Z,9.09
2022-12-26T04:14:25.819Z,9.05
2022-12-26T04:17:32.707Z,9.06
2022-12-26T04:20:43.617Z,9.01
2022-12-26T04:23:41.996Z,9.04
2022-12-26T04:26:57.906Z,8.93
2022-12-26T04:29:56.031Z,8.86
2022-12-26T04:33:05.783Z,8.89
2022-12-26T04:36:03.623Z,8.82
2022-12-26T04:39:06.298Z,8.83
2022-12-26T04:42:04.366Z,8.78
2022-12-26T04:44:34.502Z,8.70
2022-12-26T04:47:01.167Z,8.72
2022-12-26T04:49:47.754Z,8.69
2022-12-26T04:52:15.420Z,8.67
2022-12-26T04:54:42.385Z,8.76
2022-12-26T04:57:10.795Z,8.74
2022-12-26T04:59:37.467Z,8.69
2022-12-26T05:02:22.934Z,8.62
2022-12-26T05:05:08.172Z,8.60
2022-12-26T05:07:55.428Z,8.66
2022-12-26T05:10:31.367Z,8.65
2022-12-26T05:13:01.247Z,8.65
2022-12-26T05:15:27.894Z,8.71
2022-12-26T05:18:13.071Z,8.69
2022-12-26T05:21:22.263Z,8.67
2022-12-26T05:24:07.442Z,8.65
2022-12-26T05:26:53.584Z,8.61
2022-12-26T05:29:21.357Z,8.58
2022-12-26T05:31:48.162Z,8.58
2022-12-26T05:34:17.456Z,8.58
2022-12-26T05:36:49.210Z,8.60
2022-12-26T05:39:18.026Z,8.62
2022-12-26T05:41:44.963Z,8.67
2022-12-26T05:44:11.824Z,8.70
2022-12-26T05:46:40.147Z,8.67
2022-12-26T05:49:08.258Z,8.67
2022-12-26T05:51:36.214Z,8.70
2022-12-26T05:54:04.120Z,8.68
2022-12-26T05:56:30.939Z,8.66
2022-12-26T05:59:00.890Z,8.62
2022-12-26T06:01:29.376Z,8.62
2022-12-26T06:03:59.254Z,8.62
2022-12-26T06:06:27.435Z,8.62
2022-12-26T06:08:56.911Z,8.65
2022-12-26T06:11:26.533Z,8.68
2022-12-26T06:13:54.077Z,8.65
2022-12-26T06:16:20.971Z,8.60
2022-12-26T06:18:48.878Z,8.61
2022-12-26T06:21:20.366Z,8.59
2022-12-26T06:23:51.042Z,8.60
2022-12-26T06:26:18.103Z,8.58
2022-12-26T06:29:25.747Z,8.59
2022-12-26T06:31:59.331Z,8.63
2022-12-26T06:34:27.664Z,8.63
2022-12-26T06:36:59.560Z,8.67
2022-12-26T06:39:27.271Z,8.63
2022-12-26T06:41:53.915Z,8.78
2022-12-26T06:44:20.637Z,8.80
2022-12-26T06:46:47.436Z,8.78
2022-12-26T06:49:14.163Z,8.84
2022-12-26T06:51:41.078Z,8.87
2022-12-26T06:54:07.962Z,8.81
2022-12-26T06:56:35.364Z,8.81
2022-12-26T06:59:07.688Z,8.80
2022-12-26T07:01:35.255Z,8.86
2022-12-26T07:04:04.175Z,8.87
2022-12-26T07:06:34.475Z,8.85
2022-12-26T07:09:14.600Z,8.88
2022-12-26T07:11:45.997Z,8.83
2022-12-26T07:14:16.408Z,8.87
2022-12-26T07:16:48.086Z,8.84
2022-12-26T07:19:25.459Z,8.84
2022-12-26T07:21:52.157Z,8.82
2022-12-26T07:24:21.783Z,8.84
2022-12-26T07:26:49.445Z,8.81
2022-12-26T07:29:16.640Z,8.86
2022-12-26T07:31:43.462Z,8.79
2022-12-26T07:34:10.314Z,8.81
2022-12-26T07:36:37.043Z,8.86
2022-12-26T07:39:03.884Z,8.77
2022-12-26T07:41:49.534Z,8.73
2022-12-26T07:44:16.398Z,8.72
2022-12-26T07:46:49.716Z,8.70
2022-12-26T07:49:16.645Z,8.69
2022-12-26T07:51:54.182Z,8.83
2022-12-26T07:54:20.916Z,8.80
2022-12-26T07:57:03.875Z,8.78
2022-12-26T07:59:40.523Z,8.80
2022-12-26T08:02:11.052Z,8.74
2022-12-26T08:04:38.312Z,8.73
2022-12-26T08:07:05.016Z,8.81
2022-12-26T08:09:31.996Z,8.74
2022-12-26T08:11:58.715Z,8.66
2022-12-26T08:14:25.323Z,8.72
2022-12-26T08:16:53.804Z,8.72
2022-12-26T08:19:20.541Z,8.66
2022-12-26T08:21:47.203Z,8.65
2022-12-26T08:24:14.977Z,8.68
2022-12-26T08:26:41.832Z,8.73
2022-12-26T08:29:10.308Z,8.76
2022-12-26T08:31:46.525Z,8.83
2022-12-26T08:34:13.495Z,8.72
2022-12-26T08:36:40.357Z,8.64
2022-12-26T08:39:07.084Z,8.66
2022-12-26T08:41:33.781Z,8.78
2022-12-26T08:46:56.677Z,8.71
2022-12-26T08:49:23.316Z,8.72
2022-12-26T08:51:49.956Z,8.75
2022-12-26T08:54:16.605Z,8.79
2022-12-26T08:56:43.380Z,8.85
2022-12-26T08:59:18.276Z,8.80
2022-12-26T09:01:46.040Z,8.84
2022-12-26T09:04:12.897Z,8.90
2022-12-26T09:06:40.055Z,9.00
2022-12-26T09:09:18.223Z,8.91
2022-12-26T09:11:52.786Z,8.96
2022-12-26T09:14:19.478Z,9.07
2022-12-26T09:16:50.337Z,9.06
2022-12-26T09:19:20.156Z,9.07
2022-12-26T09:21:48.836Z,9.02
2022-12-26T09:24:27.824Z,8.98
2022-12-26T09:26:54.477Z,8.98
2022-12-26T09:29:25.353Z,8.81
2022-12-26T09:31:55.264Z,8.84
2022-12-26T09:34:22.099Z,8.82
2022-12-26T09:37:03.352Z,8.93
2022-12-26T09:39:31.118Z,8.97
2022-12-26T09:42:49.363Z,8.89
2022-12-26T09:45:22.647Z,8.93
2022-12-26T09:48:06.582Z,9.07
2022-12-26T09:50:40.993Z,9.16
2022-12-26T09:53:19.757Z,9.11
2022-12-26T09:55:57.376Z,9.18
2022-12-26T09:58:49.707Z,9.17
2022-12-26T10:01:25.831Z,9.20
2022-12-26T10:03:56.871Z,9.26
2022-12-26T10:06:52.037Z,9.24
2022-12-26T10:09:43.431Z,9.29
2022-12-26T10:13:01.050Z,9.36
2022-12-26T10:15:53.977Z,9.30
2022-12-26T10:18:52.445Z,9.38
2022-12-26T10:22:04.653Z,9.39
2022-12-26T10:24:35.201Z,9.40
2022-12-26T10:27:16.137Z,9.46
2022-12-26T10:29:52.257Z,9.46
2022-12-26T10:32:40.085Z,9.35
2022-12-26T10:35:30.101Z,9.48
2022-12-26T10:38:44.472Z,9.31
2022-12-26T10:41:20.587Z,9.37
2022-12-26T10:43:47.333Z,9.36
2022-12-26T10:46:57.000Z,9.36
2022-12-26T10:49:26.616Z,9.47
2022-12-26T10:51:57.220Z,9.49
2022-12-26T10:54:23.914Z,9.41
2022-12-26T10:56:52.097Z,9.38
2022-12-26T10:59:24.198Z,9.33
2022-12-26T11:01:51.348Z,9.31
2022-12-26T11:04:52.800Z,9.41
2022-12-26T11:07:12.954Z,9.48
2022-12-26T11:09:43.964Z,9.43
2022-12-26T11:12:43.057Z,9.51
2022-12-26T11:15:40.975Z,9.57
2022-12-26T11:18:34.128Z,9.69
2022-12-26T11:21:36.574Z,9.73
2022-12-26T11:24:09.035Z,9.69
2022-12-26T11:26:37.274Z,9.75
2022-12-26T11:29:20.599Z,9.90
2022-12-26T11:32:00.914Z,9.92
2022-12-26T11:34:38.266Z,9.93
2022-12-26T11:37:07.269Z,9.88
2022-12-26T11:39:37.712Z,9.88
2022-12-26T11:42:21.640Z,9.88
2022-12-26T11:44:52.396Z,9.83
2022-12-26T11:47:27.071Z,9.89
2022-12-26T11:50:04.787Z,9.85
2022-12-26T11:52:34.842Z,9.77
2022-12-26T11:55:02.045Z,9.79
2022-12-26T11:57:32.768Z,9.60
2022-12-26T12:00:24.523Z,9.50
2022-12-26T12:02:51.489Z,9.43
2022-12-26T12:05:52.894Z,9.15
2022-12-26T12:08:40.711Z,9.05
2022-12-26T12:11:39.755Z,9.00
2022-12-26T12:14:55.002Z,9.05
2022-12-26T12:17:27.737Z,9.12
2022-12-26T12:20:03.748Z,9.19
2022-12-26T12:23:02.955Z,9.30
2022-12-26T12:26:02.977Z,9.27
2022-12-26T12:28:57.525Z,9.29
2022-12-26T12:32:12.568Z,9.26
2022-12-26T12:35:19.135Z,9.08
2022-12-26T12:38:03.951Z,8.89
2022-12-26T12:41:03.397Z,8.84
2022-12-26T12:43:59.165Z,8.84
2022-12-26T12:46:31.687Z,8.78
2022-12-26T12:49:25.719Z,8.73
2022-12-26T12:52:26.526Z,8.70
2022-12-26T12:55:18.765Z,8.68
2022-12-26T12:58:08.173Z,8.64
2022-12-26T13:00:46.354Z,8.68
2022-12-26T13:03:39.844Z,8.62
2022-12-26T13:06:13.535Z,8.63
2022-12-26T13:08:53.130Z,8.61
2022-12-26T13:11:33.290Z,8.58
2022-12-26T13:14:25.757Z,8.60
2022-12-26T13:17:07.938Z,8.48
2022-12-26T13:19:52.285Z,8.40
2022-12-26T13:22:59.458Z,8.26
2022-12-26T13:25:33.641Z,8.24
2022-12-26T13:28:10.056Z,8.20
2022-12-26T13:30:38.213Z,8.24
2022-12-26T13:33:05.998Z,8.29
2022-12-26T13:35:55.601Z,8.29
2022-12-26T13:38:24.614Z,8.26
2022-12-26T13:41:20.228Z,8.27
2022-12-26T13:44:06.237Z,8.33
2022-12-26T13:46:41.778Z,8.32
2022-12-26T13:49:38.668Z,8.25
2022-12-26T13:52:11.496Z,8.23
2022-12-26T13:55:06.864Z,8.21
2022-12-26T13:57:41.807Z,8.25
2022-12-26T14:00:44.998Z,8.21
2022-12-26T14:03:24.048Z,8.22
2022-12-26T14:06:47.501Z,8.21
2022-12-26T14:09:45.671Z,8.14
2022-12-26T14:12:54.526Z,8.15
2022-12-26T14:15:21.099Z,8.11
2022-12-26T14:18:14.843Z,8.04
2022-12-26T14:20:56.725Z,8.00
2022-12-26T14:24:08.249Z,7.96
2022-12-26T14:27:19.379Z,7.92
2022-12-26T14:29:52.280Z,7.87
2022-12-26T14:32:45.488Z,7.85
2022-12-26T14:35:36.083Z,7.79
2022-12-26T14:38:06.798Z,7.78
2022-12-26T14:40:36.434Z,7.77
2022-12-26T14:43:14.251Z,7.71
2022-12-26T14:45:44.304Z,7.61
2022-12-26T14:48:17.203Z,7.48
2022-12-26T14:50:53.208Z,7.39
2022-12-26T14:53:28.944Z,7.37
2022-12-26T14:56:34.217Z,7.33
2022-12-26T14:59:34.825Z,7.33
2022-12-26T15:02:10.892Z,7.24
2022-12-26T15:04:49.572Z,7.24
2022-12-26T15:07:31.316Z,7.19
2022-12-26T15:10:48.122Z,7.19
2022-12-26T15:13:54.604Z,7.14
2022-12-26T15:16:51.583Z,7.16
2022-12-26T15:19:33.542Z,7.15
2022-12-26T15:22:50.786Z,7.16
2022-12-26T15:25:35.610Z,7.11
2022-12-26T15:28:25.952Z,7.05
2022-12-26T15:31:07.633Z,7.05
2022-12-26T15:33:48.625Z,6.99
2022-12-26T15:36:49.857Z,7.00
2022-12-26T15:39:19.518Z,6.95
2022-12-26T15:41:48.666Z,6.90
2022-12-26T15:44:44.578Z,6.88
2022-12-26T15:47:49.920Z,6.80
2022-12-26T15:50:29.989Z,6.78
2022-12-26T15:53:03.489Z,6.73
2022-12-26T15:55:59.448Z,6.76
2022-12-26T15:59:11.586Z,6.73
2022-12-26T16:01:44.928Z,6.71
2022-12-26T16:04:27.495Z,6.69
2022-12-26T16:07:15.813Z,6.62
2022-12-26T16:09:49.764Z,6.61
2022-12-26T16:12:27.825Z,6.55
2022-12-26T16:15:09.839Z,6.51
2022-12-26T16:17:41.091Z,6.41
2022-12-26T16:20:50.142Z,6.36
2022-12-26T16:23:24.645Z,6.28
2022-12-26T16:25:54.864Z,6.17
2022-12-26T16:28:27.983Z,6.14
2022-12-26T16:30:57.509Z,6.09
2022-12-26T16:33:24.575Z,6.02
2022-12-26T16:35:56.209Z,5.95
2022-12-26T16:38:30.554Z,5.89
2022-12-26T16:40:58.075Z,5.83
2022-12-26T16:43:29.826Z,5.94
2022-12-26T16:46:02.373Z,5.88
2022-12-26T16:48:32.329Z,5.87
2022-12-26T16:51:07.653Z,5.83
2022-12-26T16:53:37.291Z,5.78
2022-12-26T16:56:29.491Z,5.79
2022-12-26T16:59:23.204Z,5.73
2022-12-26T17:01:57.325Z,5.66
2022-12-26T17:04:27.759Z,5.59
2022-12-26T17:07:06.969Z,5.48
2022-12-26T17:09:45.762Z,5.47
2022-12-26T17:12:25.237Z,5.40
2022-12-26T17:14:54.253Z,5.37
2022-12-26T17:17:24.001Z,5.37
2022-12-26T17:19:56.491Z,5.30
2022-12-26T17:22:35.405Z,5.19
2022-12-26T17:25:34.682Z,5.07
2022-12-26T17:28:15.157Z,5.00
2022-12-26T17:30:44.810Z,4.97
2022-12-26T17:33:25.391Z,4.90
2022-12-26T17:38:46.010Z,4.80
2022-12-26T17:41:16.144Z,4.78
2022-12-26T17:43:44.075Z,4.75
2022-12-26T17:46:15.603Z,4.74
2022-12-26T17:48:43.372Z,4.73
2022-12-26T17:51:22.512Z,4.69
2022-12-26T17:53:55.237Z,4.68
2022-12-26T17:56:27.250Z,4.64
2022-12-26T17:58:55.527Z,4.53
2022-12-26T18:01:22.485Z,4.54
2022-12-26T18:03:51.927Z,4.48
2022-12-26T18:06:19.539Z,4.46
2022-12-26T18:08:46.944Z,4.45
2022-12-26T18:11:14.373Z,4.46
2022-12-26T18:13:42.152Z,4.42
2022-12-26T18:16:15.748Z,4.22
2022-12-26T18:18:47.425Z,4.22
2022-12-26T18:21:16.036Z,4.08
2022-12-26T18:23:42.859Z,4.09
2022-12-26T18:26:28.978Z,3.99
2022-12-26T18:28:57.314Z,4.01
2022-12-26T18:31:26.506Z,4.00
2022-12-26T18:33:54.453Z,3.88
2022-12-26T18:36:35.461Z,3.92
2022-12-26T18:39:03.169Z,3.97
2022-12-26T18:41:29.956Z,3.83
2022-12-26T18:43:58.032Z,3.85
2022-12-26T18:46:27.054Z,3.71
2022-12-26T18:48:56.566Z,3.82
2022-12-26T18:51:25.468Z,3.78
2022-12-26T18:53:52.461Z,3.67
2022-12-26T18:56:21.753Z,3.57
2022-12-26T18:58:55.568Z,3.58
2022-12-26T19:01:25.649Z,3.52
2022-12-26T19:03:53.729Z,3.56
2022-12-26T19:06:25.310Z,3.57
2022-12-26T19:08:52.094Z,3.47
2022-12-26T19:11:18.765Z,3.52
2022-12-26T19:13:45.703Z,3.56
2022-12-26T19:16:12.573Z,3.48
2022-12-26T19:18:39.541Z,3.42
2022-12-26T19:21:13.173Z,3.39
2022-12-26T19:23:40.719Z,3.43
2022-12-26T19:28:39.386Z,3.33
2022-12-26T19:31:08.255Z,3.43
2022-12-26T19:33:35.223Z,3.32
2022-12-26T19:36:02.368Z,3.29
2022-12-26T19:38:29.049Z,3.26
2022-12-26T19:41:05.956Z,3.21
2022-12-26T19:43:32.625Z,3.16
2022-12-26T19:46:06.383Z,3.23
2022-12-26T19:48:34.506Z,3.19
2022-12-26T19:51:03.406Z,3.16
2022-12-26T19:53:30.214Z,3.18
2022-12-26T19:55:57.251Z,3.11
2022-12-26T19:58:24.028Z,3.06
2022-12-26T20:00:50.747Z,3.07
2022-12-26T20:03:17.458Z,3.13
2022-12-26T20:05:44.099Z,3.08
2022-12-26T20:08:11.401Z,3.01
2022-12-26T20:10:38.190Z,3.05
2022-12-26T20:13:04.890Z,3.00
2022-12-26T20:15:33.763Z,2.98
2022-12-26T20:18:00.503Z,2.99
2022-12-26T20:20:27.338Z,2.98
2022-12-26T20:22:54.043Z,2.88
2022-12-26T20:25:20.698Z,2.93
2022-12-26T20:27:47.362Z,2.90
2022-12-26T20:30:14.236Z,2.86
2022-12-26T20:32:43.985Z,2.96
2022-12-26T20:35:10.695Z,2.91
2022-12-26T20:37:37.475Z,2.97
2022-12-26T20:40:04.725Z,2.91
2022-12-26T20:42:31.428Z,2.93
2022-12-26T20:44:58.087Z,2.86
2022-12-26T20:47:24.780Z,2.82
2022-12-26T20:49:51.468Z,2.88
2022-12-26T20:52:18.999Z,2.89
2022-12-26T20:54:46.837Z,2.92
2022-12-26T20:57:13.501Z,2.89
2022-12-26T20:59:40.181Z,2.89
2022-12-26T21:02:06.992Z,2.89
2022-12-26T21:04:33.790Z,2.90
2022-12-26T21:07:00.442Z,2.89
2022-12-26T21:09:27.113Z,2.84
2022-12-26T21:11:53.903Z,2.80
2022-12-26T21:14:22.782Z,2.85
2022-12-26T21:16:58.577Z,2.82
2022-12-26T21:19:28.088Z,2.82
2022-12-26T21:21:56.231Z,2.77
2022-12-26T21:24:27.998Z,2.80
2022-12-26T21:26:55.409Z,2.82
2022-12-26T21:29:34.439Z,2.84
2022-12-26T21:32:02.725Z,2.88
2022-12-26T21:34:31.782Z,2.89
2022-12-26T21:37:17.749Z,2.87
2022-12-26T21:39:45.264Z,3.02
2022-12-26T21:42:12.204Z,2.98
2022-12-26T21:44:39.095Z,3.02
2022-12-26T21:47:08.279Z,3.10
2022-12-26T21:49:36.241Z,3.13
2022-12-26T21:52:04.782Z,3.04
2022-12-26T21:54:50.923Z,2.99
2022-12-26T21:57:18.566Z,3.00
2022-12-26T21:59:58.823Z,2.92
2022-12-26T22:02:52.255Z,2.99
2022-12-26T22:05:21.660Z,2.92
2022-12-26T22:07:53.964Z,2.91
2022-12-26T22:10:39.659Z,2.91
2022-12-26T22:13:07.656Z,2.85
2022-12-26T22:15:53.641Z,2.87
2022-12-26T22:18:20.460Z,2.85
2022-12-26T22:20:47.221Z,2.81
2022-12-26T22:23:14.677Z,2.84
2022-12-26T22:25:41.418Z,2.78
2022-12-26T22:28:08.203Z,2.83
2022-12-26T22:30:34.874Z,2.86
2022-12-26T22:33:01.525Z,2.84
2022-12-26T22:35:28.334Z,2.86
2022-12-26T22:37:54.989Z,2.85
2022-12-26T22:40:21.659Z,2.85
2022-12-26T22:42:48.406Z,2.83
2022-12-26T22:45:15.303Z,2.81
2022-12-26T22:47:42.123Z,2.83
2022-12-26T22:50:16.158Z,2.74
2022-12-26T22:52:43.277Z,2.73
2022-12-26T22:55:12.913Z,2.80
2022-12-26T22:57:39.800Z,2.76
2022-12-26T23:00:12.234Z,2.79
2022-12-26T23:02:39.879Z,2.82
2022-12-26T23:05:10.022Z,2.77
2022-12-26T23:07:37.212Z,2.75
2022-12-26T23:10:06.718Z,2.76
2022-12-26T23:12:45.976Z,2.76
2022-12-26T23:15:17.667Z,2.71
2022-12-26T23:18:18.766Z,2.80
2022-12-26T23:21:04.420Z,2.75
2022-12-26T23:23:31.682Z,2.69
2022-12-26T23:26:01.572Z,2.68
2022-12-26T23:28:47.958Z,2.71
2022-12-26T23:31:14.869Z,2.73
2022-12-26T23:33:41.507Z,2.70
2022-12-26T23:36:08.507Z,2.73
2022-12-26T23:38:35.166Z,2.70
2022-12-26T23:41:01.882Z,2.68
2022-12-26T23:43:28.569Z,2.72
2022-12-26T23:45:55.374Z,2.75
2022-12-26T23:48:22.105Z,2.75
2022-12-26T23:50:49.540Z,2.69
2022-12-26T23:53:16.264Z,2.68
2022-12-26T23:55:43.014Z,2.66
2022-12-26T23:58:09.908Z,2.59
